createdAt,value
2022-12-11T00:00:23.694Z,-1.08
2022-12-11T00:05:49.460Z,-1.14
2022-12-11T00:10:55.564Z,-1.18
2022-12-11T00:16:01.445Z,-1.19
2022-12-11T00:21:10.571Z,-1.21
2022-12-11T00:26:16.948Z,-1.25
2022-12-11T00:31:24.030Z,-1.32
2022-12-11T00:36:29.971Z,-1.34
2022-12-11T00:41:35.802Z,-1.33
2022-12-11T00:46:41.616Z,-1.32
2022-12-11T00:51:47.312Z,-1.31
2022-12-11T00:56:55.172Z,-1.36
2022-12-11T01:02:00.837Z,-1.40
2022-12-11T01:07:06.589Z,-1.43
2022-12-11T01:12:12.961Z,-1.40
2022-12-11T01:17:18.829Z,-1.40
2022-12-11T01:22:25.322Z,-1.47
2022-12-11T01:27:31.668Z,-1.50
2022-12-11T01:32:37.940Z,-1.57
2022-12-11T01:37:43.997Z,-1.63
2022-12-11T01:42:49.968Z,-1.68
2022-12-11T01:48:00.479Z,-1.67
2022-12-11T01:53:10.641Z,-1.71
2022-12-11T01:58:18.624Z,-1.75
2022-12-11T02:03:24.876Z,-1.80
2022-12-11T02:08:31.381Z,-1.78
2022-12-11T02:13:45.962Z,-1.73
2022-12-11T02:19:00.524Z,-1.73
2022-12-11T02:24:32.577Z,-1.80
2022-12-11T02:29:45.502Z,-1.91
2022-12-11T02:34:58.491Z,-1.98
2022-12-11T02:40:08.199Z,-1.96
2022-12-11T02:45:16.644Z,-1.92
2022-12-11T02:50:23.991Z,-1.95
2022-12-11T02:55:32.691Z,-2.02
2022-12-11T03:00:38.381Z,-2.01
2022-12-11T03:05:46.225Z,-1.98
2022-12-11T03:10:52.005Z,-2.00
2022-12-11T03:16:12.274Z,-2.05
2022-12-11T03:21:24.650Z,-2.07
2022-12-11T03:26:56.642Z,-2.07
2022-12-11T03:32:08.952Z,-2.07
2022-12-11T03:37:16.212Z,-2.07
2022-12-11T03:42:24.383Z,-2.09
2022-12-11T03:47:31.332Z,-2.11
2022-12-11T03:52:45.579Z,-2.09
2022-12-11T03:57:51.974Z,-2.14
2022-12-11T04:03:13.831Z,-2.19
2022-12-11T04:08:22.154Z,-2.24
2022-12-11T04:13:27.856Z,-2.24
2022-12-11T04:18:52.468Z,-2.19
2022-12-11T04:24:16.731Z,-2.19
2022-12-11T04:29:22.555Z,-2.21
2022-12-11T04:34:28.477Z,-2.26
2022-12-11T04:39:34.360Z,-2.26
2022-12-11T04:44:40.137Z,-2.26
2022-12-11T04:49:45.998Z,-2.28
2022-12-11T04:54:51.831Z,-2.32
2022-12-11T04:59:57.456Z,-2.32
2022-12-11T05:05:03.669Z,-2.31
2022-12-11T05:10:10.835Z,-2.38
2022-12-11T05:15:16.989Z,-2.40
2022-12-11T05:20:22.661Z,-2.42
2022-12-11T05:25:28.413Z,-2.42
2022-12-11T05:30:34.345Z,-2.40
2022-12-11T05:35:46.297Z,-2.47
2022-12-11T05:40:59.176Z,-2.58
2022-12-11T05:46:10.588Z,-2.66
2022-12-11T05:51:17.600Z,-2.69
2022-12-11T05:56:25.084Z,-2.70
2022-12-11T06:01:33.338Z,-2.78
2022-12-11T06:06:40.475Z,-2.85
2022-12-11T06:11:46.211Z,-2.82
2022-12-11T06:16:52.024Z,-2.84
2022-12-11T06:21:57.810Z,-2.88
2022-12-11T06:27:04.038Z,-2.92
2022-12-11T06:32:10.444Z,-2.97
2022-12-11T06:37:16.609Z,-3.01
2022-12-11T06:42:22.801Z,-3.01
2022-12-11T06:47:30.915Z,-3.04
2022-12-11T06:52:37.307Z,-2.99
2022-12-11T06:57:43.324Z,-2.96
2022-12-11T07:02:50.545Z,-3.00
2022-12-11T07:07:56.782Z,-3.06
2022-12-11T07:13:02.611Z,-3.11
2022-12-11T07:18:08.207Z,-3.09
2022-12-11T07:23:13.983Z,-3.05
2022-12-11T07:28:19.749Z,-3.04
2022-12-11T07:33:25.339Z,-3.05
2022-12-11T07:38:31.016Z,-3.08
2022-12-11T07:43:37.518Z,-3.08
2022-12-11T07:48:46.581Z,-3.08
2022-12-11T07:53:52.595Z,-3.08
2022-12-11T07:59:01.693Z,-3.08
2022-12-11T08:04:10.041Z,-3.08
2022-12-11T08:09:21.136Z,-3.10
2022-12-11T08:14:27.333Z,-3.06
2022-12-11T08:19:33.513Z,-3.04
2022-12-11T08:24:39.536Z,-3.08
2022-12-11T08:29:46.754Z,-3.11
2022-12-11T08:34:53.805Z,-3.10
2022-12-11T08:39:59.498Z,-3.05
2022-12-11T08:45:06.590Z,-3.01
2022-12-11T08:50:13.592Z,-3.06
2022-12-11T08:55:19.572Z,-3.08
2022-12-11T09:00:25.576Z,-3.04
2022-12-11T09:05:31.436Z,-2.95
2022-12-11T09:10:37.410Z,-2.87
2022-12-11T09:15:43.650Z,-2.85
2022-12-11T09:20:57.706Z,-2.86
2022-12-11T09:26:06.185Z,-2.82
2022-12-11T09:31:14.723Z,-2.75
2022-12-11T09:36:20.471Z,-2.68
2022-12-11T09:41:36.724Z,-2.64
2022-12-11T09:46:43.732Z,-2.66
2022-12-11T09:51:58.132Z,-2.68
2022-12-11T09:57:15.455Z,-2.61
2022-12-11T10:02:34.542Z,-2.58
2022-12-11T10:07:47.641Z,-2.60
2022-12-11T10:13:04.591Z,-2.59
2022-12-11T10:18:17.362Z,-2.63
2022-12-11T10:23:28.418Z,-2.58
2022-12-11T10:28:35.174Z,-2.54
2022-12-11T10:33:50.151Z,-2.57
2022-12-11T10:38:56.452Z,-2.58
2022-12-11T10:44:13.968Z,-2.53
2022-12-11T10:49:25.777Z,-2.51
2022-12-11T10:54:38.279Z,-2.52
2022-12-11T10:59:48.352Z,-2.56
2022-12-11T11:04:55.940Z,-2.55
2022-12-11T11:10:18.583Z,-2.49
2022-12-11T11:15:28.455Z,-2.44
2022-12-11T11:20:36.073Z,-2.48
2022-12-11T11:25:50.974Z,-2.56
2022-12-11T11:31:01.989Z,-2.61
2022-12-11T11:36:20.279Z,-2.56
2022-12-11T11:41:29.481Z,-2.51
2022-12-11T11:46:38.898Z,-2.52
2022-12-11T11:51:51.740Z,-2.54
2022-12-11T11:56:59.129Z,-2.55
2022-12-11T12:02:15.434Z,-2.55
2022-12-11T12:07:35.526Z,-2.55
2022-12-11T12:12:50.772Z,-2.59
2022-12-11T12:18:02.148Z,-2.60
2022-12-11T12:23:34.915Z,-2.57
2022-12-11T12:28:52.877Z,-2.57
2022-12-11T12:34:06.757Z,-2.62
2022-12-11T12:39:24.824Z,-2.67
2022-12-11T12:44:37.955Z,-2.69
2022-12-11T12:49:45.905Z,-2.65
2022-12-11T12:55:14.552Z,-2.69
2022-12-11T13:00:38.898Z,-2.76
2022-12-11T13:05:55.674Z,-2.83
2022-12-11T13:11:05.347Z,-2.89
2022-12-11T13:16:34.957Z,-2.89
2022-12-11T13:21:40.976Z,-2.91
2022-12-11T13:26:47.545Z,-2.97
2022-12-11T13:31:59.717Z,-3.07
2022-12-11T13:37:07.433Z,-3.12
2022-12-11T13:42:26.157Z,-3.12
2022-12-11T13:47:33.203Z,-3.13
2022-12-11T13:52:39.154Z,-3.16
2022-12-11T13:57:47.495Z,-3.18
2022-12-11T14:02:55.041Z,-3.19
2022-12-11T14:08:09.057Z,-3.20
2022-12-11T14:13:22.147Z,-3.23
2022-12-11T14:18:30.569Z,-3.24
2022-12-11T14:23:37.793Z,-3.30
2022-12-11T14:28:45.192Z,-3.36
2022-12-11T14:33:54.200Z,-3.38
2022-12-11T14:39:04.961Z,-3.36
2022-12-11T14:44:14.079Z,-3.37
2022-12-11T14:49:25.274Z,-3.45
2022-12-11T14:54:35.723Z,-3.53
2022-12-11T14:59:47.283Z,-3.55
2022-12-11T15:05:05.172Z,-3.51
2022-12-11T15:10:25.693Z,-3.48
2022-12-11T15:15:33.824Z,-3.47
2022-12-11T15:20:39.883Z,-3.50
2022-12-11T15:25:52.737Z,-3.53
2022-12-11T15:31:00.773Z,-3.54
2022-12-11T15:36:21.709Z,-3.56
2022-12-11T15:41:33.183Z,-3.57
2022-12-11T15:46:39.025Z,-3.58
2022-12-11T15:51:44.857Z,-3.59
2022-12-11T15:56:50.837Z,-3.59
2022-12-11T16:01:56.753Z,-3.60
2022-12-11T16:07:02.424Z,-3.61
2022-12-11T16:12:09.414Z,-3.66
2022-12-11T16:17:16.399Z,-3.67
2022-12-11T16:22:22.205Z,-3.70
2022-12-11T16:27:28.155Z,-3.76
2022-12-11T16:32:34.479Z,-3.78
2022-12-11T16:37:40.466Z,-3.78
2022-12-11T16:42:46.890Z,-3.79
2022-12-11T16:47:53.578Z,-3.81
2022-12-11T16:53:00.055Z,-3.81
2022-12-11T16:58:06.112Z,-3.82
2022-12-11T17:03:11.884Z,-3.83
2022-12-11T17:08:17.752Z,-3.84
2022-12-11T17:13:23.562Z,-3.90
2022-12-11T17:18:29.532Z,-3.90
2022-12-11T17:23:35.347Z,-3.86
2022-12-11T17:28:41.303Z,-3.86
2022-12-11T17:33:48.278Z,-3.86
2022-12-11T17:38:54.222Z,-3.87
2022-12-11T17:43:59.971Z,-3.84
2022-12-11T17:49:06.351Z,-3.87
2022-12-11T17:54:12.115Z,-3.91
2022-12-11T17:59:18.309Z,-3.94
2022-12-11T18:04:24.419Z,-3.94
2022-12-11T18:09:30.352Z,-3.93
2022-12-11T18:14:37.554Z,-3.95
2022-12-11T18:19:46.284Z,-3.92
2022-12-11T18:24:52.908Z,-3.90
2022-12-11T18:29:58.841Z,-3.94
2022-12-11T18:35:05.624Z,-3.98
2022-12-11T18:40:12.642Z,-3.95
2022-12-11T18:45:18.345Z,-3.89
2022-12-11T18:50:24.116Z,-3.88
2022-12-11T18:55:29.825Z,-3.87
2022-12-11T19:00:37.400Z,-3.87
2022-12-11T19:05:44.012Z,-3.87
2022-12-11T19:10:49.870Z,-3.87
2022-12-11T19:15:55.814Z,-3.87
2022-12-11T19:21:08.525Z,-3.89
2022-12-11T19:26:18.241Z,-3.88
2022-12-11T19:31:24.889Z,-3.88
2022-12-11T19:36:35.217Z,-3.90
2022-12-11T19:41:42.876Z,-3.91
2022-12-11T19:46:48.786Z,-3.92
2022-12-11T19:51:54.884Z,-3.94
2022-12-11T19:57:00.555Z,-3.98
2022-12-11T20:02:06.523Z,-3.99
2022-12-11T20:07:12.409Z,-3.95
2022-12-11T20:12:18.290Z,-3.97
2022-12-11T20:17:24.342Z,-3.93
2022-12-11T20:22:30.312Z,-3.90
2022-12-11T20:27:37.475Z,-3.89
2022-12-11T20:32:43.636Z,-3.94
2022-12-11T20:37:49.508Z,-3.97
2022-12-11T20:42:55.329Z,-3.95
2022-12-11T20:48:01.269Z,-3.92
2022-12-11T20:53:07.106Z,-3.93
2022-12-11T20:58:12.898Z,-3.97
2022-12-11T21:03:18.922Z,-3.98
2022-12-11T21:08:24.864Z,-4.00
2022-12-11T21:13:31.223Z,-3.99
2022-12-11T21:18:37.306Z,-3.96
2022-12-11T21:23:43.376Z,-3.92
2022-12-11T21:28:52.162Z,-3.93
2022-12-11T21:33:58.055Z,-3.95
2022-12-11T21:39:04.559Z,-3.99
2022-12-11T21:49:38.807Z,-3.94
2022-12-11T21:54:44.445Z,-3.96
2022-12-11T21:59:50.137Z,-3.96
2022-12-11T22:04:55.865Z,-3.94
2022-12-11T22:10:01.808Z,-3.97
2022-12-11T22:15:10.025Z,-4.02
2022-12-11T22:20:15.991Z,-4.01
2022-12-11T22:25:21.904Z,-3.98
2022-12-11T22:30:27.773Z,-3.96
2022-12-11T22:35:33.572Z,-3.94
2022-12-11T22:40:42.505Z,-3.91
2022-12-11T22:45:48.165Z,-3.85
2022-12-11T22:50:56.031Z,-3.86
2022-12-11T22:56:05.952Z,-3.90
2022-12-11T23:01:15.363Z,-3.86
2022-12-11T23:06:24.972Z,-3.86
2022-12-11T23:11:34.910Z,-3.88
2022-12-11T23:16:41.079Z,-3.86
2022-12-11T23:21:46.891Z,-3.82
2022-12-11T23:26:52.558Z,-3.79
2022-12-11T23:31:59.399Z,-3.80
2022-12-11T23:37:05.553Z,-3.80
2022-12-11T23:42:11.261Z,-3.77
2022-12-11T23:47:16.972Z,-3.73
2022-12-11T23:52:23.107Z,-3.71
2022-12-11T23:57:30.287Z,-3.74
